Time;durP1;ratioP1;P1;durP2;ratioP2;P2;SDS_P1;SDS_P2;PMS_P1;PMS_P2;Temp;Humidity;BMP_temperature;BMP_pressure;BME280_temperature;BME280_humidity;BME280_pressure;Samples;Min_cycle;Max_cycle;Signal;HPM_P1;HPM_P2
2022/04/23 00:01:23;;;;;;;5.00;4.70;;;13.80;29.50;;;;;;10382667;28;20254;-75
2022/04/23 00:06:27;;;;;;;4.50;4.20;;;13.80;29.50;;;;;;10380724;28;20308;-75
2022/04/23 00:11:31;;;;;;;4.37;4.07;;;13.80;29.50;;;;;;10382390;28;20257;-75
2022/04/23 00:16:34;;;;;;;4.47;4.17;;;13.80;29.40;;;;;;10388243;28;20223;-74
2022/04/23 00:21:39;;;;;;;4.80;4.50;;;13.80;29.60;;;;;;10384663;28;20229;-75
2022/04/23 00:26:42;;;;;;;5.10;4.70;;;13.70;29.70;;;;;;10381008;28;20232;-75
2022/04/23 00:31:45;;;;;;;4.93;4.63;;;13.70;29.60;;;;;;10382840;28;20241;-75
2022/04/23 00:36:50;;;;;;;4.37;4.07;;;13.60;29.70;;;;;;10383696;28;20768;-75
2022/04/23 00:41:57;;;;;;;4.77;4.47;;;13.50;30.00;;;;;;10380609;28;20229;-75
2022/04/23 00:47:00;;;;;;;4.97;4.67;;;13.50;30.00;;;;;;10380783;28;20713;-75
2022/04/23 00:52:06;;;;;;;3.97;3.77;;;13.50;30.10;;;;;;10383777;28;20345;-75
2022/04/23 00:57:09;;;;;;;3.97;3.77;;;13.40;30.70;;;;;;10380136;28;20221;-75
2022/04/23 01:40:40;;;;;;;4.53;4.23;;;12.70;31.40;;;;;;10301922;28;20695;-72
2022/04/23 01:45:44;;;;;;;4.37;4.07;;;12.70;32.40;;;;;;10299091;28;20652;-72
2022/04/23 01:50:47;;;;;;;5.10;4.70;;;12.60;31.80;;;;;;10298103;28;20237;-72
2022/04/23 01:55:53;;;;;;;4.47;4.17;;;12.60;31.90;;;;;;10300696;28;20226;-72
2022/04/23 02:00:58;;;;;;;4.17;3.87;;;12.70;32.40;;;;;;10300586;28;20242;-72
2022/04/23 02:06:01;;;;;;;3.67;3.47;;;12.80;31.90;;;;;;10291652;28;20247;-72
2022/04/23 02:11:06;;;;;;;3.60;3.40;;;12.80;31.70;;;;;;10299492;28;20347;-72
2022/04/23 02:16:10;;;;;;;3.70;3.50;;;12.90;32.20;;;;;;10296202;28;20235;-72
2022/04/23 02:21:13;;;;;;;4.60;4.30;;;12.90;31.70;;;;;;10299243;28;20236;-72
2022/04/23 02:26:18;;;;;;;5.10;4.70;;;13.00;31.80;;;;;;10301220;28;20235;-72
2022/04/23 02:31:21;;;;;;;4.83;4.53;;;13.00;32.10;;;;;;10301371;28;20222;-72
2022/04/23 02:36:24;;;;;;;5.40;5.00;;;13.00;31.70;;;;;;10298579;28;20235;-72
2022/04/23 02:41:29;;;;;;;5.87;5.37;;;13.10;31.80;;;;;;10306030;28;20233;-72
2022/04/23 02:46:32;;;;;;;6.53;6.03;;;13.10;32.10;;;;;;10308843;28;20230;-72
2022/04/23 02:51:35;;;;;;;6.97;6.37;;;13.10;32.00;;;;;;10306370;28;20234;-72
2022/04/23 02:56:39;;;;;;;7.03;6.50;;;13.00;31.80;;;;;;10303343;28;20228;-71
2022/04/23 03:01:43;;;;;;;7.10;6.50;;;13.00;33.20;;;;;;10305858;28;20250;-72
2022/04/23 03:06:46;;;;;;;6.30;5.80;;;13.00;32.10;;;;;;10304617;28;20223;-72
2022/04/23 03:11:51;;;;;;;6.37;5.93;;;13.00;32.10;;;;;;10303571;28;20231;-72
2022/04/23 03:16:54;;;;;;;6.50;6.00;;;13.00;32.50;;;;;;10304749;28;20230;-72
2022/04/23 03:21:57;;;;;;;6.40;5.90;;;13.10;32.20;;;;;;10306366;28;20227;-72
2022/04/23 03:27:02;;;;;;;7.33;6.73;;;13.10;32.30;;;;;;10305162;28;20223;-72
2022/04/23 03:32:06;;;;;;;6.50;5.97;;;13.10;32.60;;;;;;10305186;28;20247;-72
2022/04/23 03:37:09;;;;;;;6.03;5.43;;;13.10;32.40;;;;;;10305588;28;20228;-72
2022/04/23 03:42:14;;;;;;;5.57;5.17;;;13.10;32.30;;;;;;10305283;28;20227;-72
2022/04/23 03:47:18;;;;;;;5.60;5.20;;;13.10;32.70;;;;;;10304234;28;20230;-72
2022/04/23 03:52:21;;;;;;;5.97;5.47;;;13.10;32.40;;;;;;10306797;28;20227;-72
2022/04/23 03:57:25;;;;;;;5.43;5.03;;;13.10;32.40;;;;;;10306775;28;20246;-72
2022/04/23 04:02:28;;;;;;;5.20;4.80;;;13.20;32.70;;;;;;10306337;28;20232;-72
2022/04/23 04:07:32;;;;;;;5.43;5.03;;;13.20;32.30;;;;;;10297826;28;20224;-72
2022/04/23 04:12:37;;;;;;;5.57;5.10;;;13.20;32.30;;;;;;10301328;28;20231;-72
2022/04/23 04:17:41;;;;;;;5.00;4.60;;;13.20;32.60;;;;;;10301379;28;20230;-72
2022/04/23 04:22:45;;;;;;;5.00;4.60;;;13.30;32.30;;;;;;10302219;28;20238;-72
2022/04/23 04:27:50;;;;;;;4.60;4.30;;;13.30;32.30;;;;;;10310713;28;20230;-72
2022/04/23 04:32:53;;;;;;;5.47;4.97;;;13.30;32.60;;;;;;10298428;28;20238;-72
2022/04/23 04:37:57;;;;;;;6.07;5.57;;;13.30;32.30;;;;;;10300351;28;20398;-72
2022/04/23 04:43:01;;;;;;;5.87;5.37;;;13.20;32.40;;;;;;10300278;28;21257;-72
2022/04/23 04:48:06;;;;;;;5.67;5.20;;;13.20;32.80;;;;;;10303079;28;20350;-72
2022/04/23 04:53:09;;;;;;;6.13;5.63;;;13.10;32.80;;;;;;10299264;28;20828;-72
2022/04/23 04:58:13;;;;;;;6.30;5.80;;;13.10;32.70;;;;;;10301655;28;20237;-72
2022/04/23 05:03:16;;;;;;;5.80;5.30;;;13.00;32.80;;;;;;10298791;28;20242;-72
2022/04/23 05:08:20;;;;;;;6.10;5.60;;;13.00;32.70;;;;;;10295339;28;20238;-71
2022/04/23 05:13:25;;;;;;;5.93;5.43;;;13.00;32.70;;;;;;10299360;28;20235;-71
2022/04/23 05:18:28;;;;;;;6.30;5.80;;;13.10;33.00;;;;;;10307380;28;20610;-73
2022/04/23 05:23:31;;;;;;;4.97;4.60;;;13.10;32.70;;;;;;10299363;28;20226;-72
2022/04/23 05:28:36;;;;;;;5.40;5.00;;;13.20;32.70;;;;;;10298214;28;20227;-72
2022/04/23 05:33:39;;;;;;;5.87;5.37;;;13.20;33.00;;;;;;10302159;28;20246;-72
2022/04/23 05:38:42;;;;;;;6.00;5.50;;;13.20;32.70;;;;;;10297004;28;20234;-72
2022/04/23 05:43:46;;;;;;;5.67;5.17;;;13.20;32.60;;;;;;10299895;28;20241;-72
2022/04/23 05:48:50;;;;;;;6.87;6.27;;;13.30;33.00;;;;;;10298648;28;20219;-73
2022/04/23 05:53:53;;;;;;;6.97;6.37;;;13.30;32.70;;;;;;10295697;28;20235;-73
2022/04/23 05:58:57;;;;;;;6.63;6.13;;;13.30;33.00;;;;;;10301309;28;20224;-73
2022/04/23 06:04:00;;;;;;;7.53;6.83;;;13.30;33.30;;;;;;10300990;28;20313;-73
2022/04/23 06:09:04;;;;;;;6.33;5.80;;;13.20;33.10;;;;;;10296190;28;20231;-73
2022/04/23 06:14:08;;;;;;;6.70;6.10;;;13.30;33.20;;;;;;10295582;28;20238;-74
2022/04/23 06:19:12;;;;;;;7.03;6.43;;;13.30;33.60;;;;;;10295499;28;22486;-74
2022/04/23 06:24:15;;;;;;;7.37;6.67;;;13.30;33.20;;;;;;10302189;28;20247;-74
2022/04/23 06:29:20;;;;;;;6.80;6.20;;;13.40;33.30;;;;;;10304879;28;20233;-74
2022/04/23 06:34:23;;;;;;;6.93;6.33;;;13.40;33.50;;;;;;10299294;28;20227;-74
2022/04/23 06:39:26;;;;;;;8.07;7.40;;;13.50;33.20;;;;;;10296590;28;20231;-74
2022/04/23 06:44:31;;;;;;;6.40;5.80;;;13.60;33.40;;;;;;10294682;28;20695;-73
2022/04/23 06:49:34;;;;;;;6.73;6.03;;;13.60;34.10;;;;;;10306222;28;20228;-73
2022/04/23 06:54:37;;;;;;;6.30;5.80;;;13.70;33.50;;;;;;10299372;28;20699;-74
2022/04/23 06:59:42;;;;;;;6.77;6.17;;;13.90;33.40;;;;;;10305959;28;20269;-73
2022/04/23 07:04:46;;;;;;;6.17;5.60;;;13.90;33.50;;;;;;10301698;28;20223;-74
2022/04/23 07:09:49;;;;;;;6.60;6.00;;;14.00;33.20;;;;;;10301696;28;20808;-74
2022/04/23 07:14:53;;;;;;;6.50;6.00;;;14.00;33.40;;;;;;10362536;23;20583;-74
2022/04/23 07:19:57;;;;;;;7.00;6.50;;;14.10;33.50;;;;;;10382237;28;20219;-74
2022/04/23 07:25:00;;;;;;;6.90;6.30;;;14.10;33.10;;;;;;10389261;28;20233;-73
2022/04/23 07:30:06;;;;;;;6.80;6.20;;;14.10;33.20;;;;;;10399179;28;20222;-75
2022/04/23 07:40:30;;;;;;;6.93;6.40;;;14.20;33.30;;;;;;10391530;28;20888;-75
2022/04/23 07:45:35;;;;;;;6.93;6.43;;;14.20;33.40;;;;;;10395094;28;20222;-72
2022/04/23 07:50:40;;;;;;;8.33;7.53;;;14.20;33.60;;;;;;10392466;28;20230;-70
2022/04/23 07:55:43;;;;;;;7.10;6.47;;;14.30;33.40;;;;;;10395582;28;20232;-71
2022/04/23 08:00:48;;;;;;;8.03;7.33;;;14.40;33.10;;;;;;10396842;28;20223;-71
2022/04/23 08:05:51;;;;;;;8.73;7.17;;;14.50;33.40;;;;;;10400795;28;20265;-72
2022/04/23 08:10:54;;;;;;;7.33;6.73;;;14.60;33.40;;;;;;10399012;28;20225;-72
2022/04/23 08:16:00;;;;;;;8.07;7.40;;;14.60;33.20;;;;;;10387124;28;20906;-70
2022/04/23 08:21:03;;;;;;;8.80;8.00;;;14.70;33.30;;;;;;10395959;28;20327;-69
2022/04/23 08:26:06;;;;;;;8.07;7.27;;;14.80;33.10;;;;;;10387530;28;20256;-73
2022/04/23 08:31:12;;;;;;;7.47;6.60;;;14.90;33.00;;;;;;10381962;28;20252;-74
2022/04/23 08:36:15;;;;;;;8.60;7.80;;;14.90;33.60;;;;;;10426997;28;20243;-74
2022/04/23 08:41:18;;;;;;;8.60;7.80;;;15.00;33.30;;;;;;10401871;28;20221;-74
2022/04/23 08:46:24;;;;;;;9.33;7.87;;;15.10;33.20;;;;;;10406053;28;21219;-73
2022/04/23 08:51:32;;;;;;;9.50;8.60;;;15.20;32.90;;;;;;10403167;28;20225;-72
2022/04/23 08:56:39;;;;;;;8.43;7.73;;;15.30;32.40;;;;;;10389192;28;20724;-72
2022/04/23 09:01:45;;;;;;;8.80;8.10;;;15.30;32.80;;;;;;10391582;28;20603;-71
2022/04/23 09:06:49;;;;;;;9.17;8.37;;;15.30;32.40;;;;;;10393047;28;20604;-71
2022/04/23 09:11:55;;;;;;;11.83;10.20;;;15.30;32.40;;;;;;10395666;28;20226;-73
2022/04/23 09:27:46;;;;;;;11.67;10.47;;;15.30;32.40;;;;;;10390015;28;20230;-73
2022/04/23 09:33:08;;;;;;;12.57;11.37;;;15.30;32.40;;;;;;10382653;28;20237;-74
2022/04/23 09:38:18;;;;;;;12.50;11.30;;;15.30;33.00;;;;;;10394156;28;20667;-74
2022/04/23 09:43:27;;;;;;;13.07;11.77;;;15.40;32.90;;;;;;10381779;28;20701;-73
2022/04/23 09:48:33;;;;;;;13.10;11.80;;;15.50;32.90;;;;;;10382665;28;20586;-73
2022/04/23 09:53:37;;;;;;;12.37;11.07;;;15.50;32.50;;;;;;10378924;28;20245;-73
2022/04/23 09:58:41;;;;;;;13.63;11.87;;;15.40;32.50;;;;;;10387235;28;20689;-73
2022/04/23 10:03:49;;;;;;;12.73;11.43;;;15.50;32.50;;;;;;10381601;28;20612;-73
2022/04/23 10:08:57;;;;;;;13.77;12.37;;;15.50;32.80;;;;;;10381314;28;20304;-73
2022/04/23 10:14:04;;;;;;;12.17;10.97;;;15.50;32.60;;;;;;10386176;28;20229;-74
2022/04/23 10:19:09;;;;;;;13.00;11.80;;;15.60;32.60;;;;;;10379254;28;20226;-74
2022/04/23 10:24:15;;;;;;;14.13;12.53;;;15.60;32.70;;;;;;10379597;28;20226;-74
2022/04/23 10:29:21;;;;;;;13.40;11.57;;;15.60;32.60;;;;;;10382068;28;20224;-73
2022/04/23 10:34:32;;;;;;;12.00;10.70;;;15.60;32.60;;;;;;10379954;28;20230;-73
2022/04/23 10:39:35;;;;;;;12.43;11.13;;;15.70;32.70;;;;;;10381633;28;20379;-73
2022/04/23 10:44:39;;;;;;;13.23;11.83;;;15.70;32.80;;;;;;10379310;28;20307;-74
2022/04/23 10:49:44;;;;;;;13.00;11.70;;;15.70;32.70;;;;;;10377729;28;20626;-72
2022/04/23 10:54:57;;;;;;;14.10;12.63;;;15.70;32.70;;;;;;10382724;28;20697;-73
2022/04/23 11:00:11;;;;;;;14.33;12.90;;;15.80;32.80;;;;;;10396776;28;20722;-74
2022/04/23 11:16:10;;;;;;;12.37;11.17;;;15.90;32.90;;;;;;10383936;28;20226;-73
2022/04/23 11:21:20;;;;;;;12.73;11.53;;;15.90;32.90;;;;;;10387319;28;20242;-74
2022/04/23 11:26:40;;;;;;;12.33;11.00;;;16.00;33.00;;;;;;10387972;28;20234;-73
2022/04/23 11:31:51;;;;;;;11.80;10.70;;;16.10;33.10;;;;;;10391638;28;20230;-74
2022/04/23 11:36:56;;;;;;;11.43;10.33;;;16.10;33.10;;;;;;10398737;28;20233;-74
2022/04/23 11:42:00;;;;;;;11.03;10.03;;;16.20;33.20;;;;;;10397055;28;20223;-74
2022/04/23 11:47:03;;;;;;;10.97;10.07;;;16.30;33.10;;;;;;10399158;28;20305;-74
2022/04/23 11:52:10;;;;;;;10.60;9.60;;;16.40;33.30;;;;;;10398549;28;22058;-74
2022/04/23 11:57:16;;;;;;;10.77;9.87;;;16.50;33.40;;;;;;10402975;28;20234;-74
2022/04/23 12:02:21;;;;;;;10.07;9.17;;;16.60;33.00;;;;;;10396519;28;20980;-75
2022/04/23 12:07:27;;;;;;;9.93;9.03;;;16.70;32.70;;;;;;10391476;28;20248;-74
2022/04/23 12:12:32;;;;;;;10.27;9.27;;;16.80;32.70;;;;;;10388042;28;20238;-74
2022/04/23 12:17:45;;;;;;;8.40;7.70;;;16.90;32.60;;;;;;10398893;28;20275;-74
2022/04/23 12:22:59;;;;;;;9.73;8.83;;;17.00;32.40;;;;;;10395800;28;20277;-74
2022/04/23 12:40:43;;;;;;;9.20;8.40;;;17.20;32.20;;;;;;10386697;28;20229;-74
2022/04/23 12:44:23;;;;;;;9.83;8.83;;;17.40;31.80;;;;;;10391148;28;20233;-74
2022/04/23 12:49:45;;;;;;;8.23;7.53;;;17.40;31.60;;;;;;10390086;28;20749;-73
2022/04/23 12:55:15;;;;;;;8.50;7.80;;;17.50;31.90;;;;;;10400012;28;20384;-73
2022/04/23 13:00:20;;;;;;;8.87;8.03;;;17.60;31.80;;;;;;10397859;28;20232;-73
2022/04/23 13:05:23;;;;;;;8.10;7.40;;;17.70;31.90;;;;;;10386799;28;20238;-74
2022/04/23 13:10:28;;;;;;;8.27;7.60;;;17.90;31.70;;;;;;10385412;28;20239;-73
2022/04/23 13:15:31;;;;;;;6.93;6.43;;;18.00;31.20;;;;;;10370718;28;20233;-74
2022/04/23 13:20:35;;;;;;;7.83;7.23;;;18.00;31.20;;;;;;10388548;28;20669;-72
2022/04/23 13:25:41;;;;;;;7.60;7.00;;;18.10;30.80;;;;;;10383413;28;20352;-72
2022/04/23 13:30:44;;;;;;;7.97;7.37;;;18.20;31.00;;;;;;10384893;28;20598;-72
2022/04/23 13:35:47;;;;;;;7.57;6.97;;;18.20;30.90;;;;;;10385543;28;20233;-72
2022/04/23 13:40:52;;;;;;;7.97;7.27;;;18.30;30.80;;;;;;10383739;28;20241;-72
2022/04/23 13:45:55;;;;;;;12.97;11.67;;;18.40;30.70;;;;;;10378296;23;20223;-74
2022/04/23 13:51:00;;;;;;;9.20;8.30;;;18.40;30.70;;;;;;10355425;28;20225;-74
2022/04/23 13:56:06;;;;;;;7.43;6.83;;;18.50;30.80;;;;;;10357025;28;20237;-75
2022/04/23 14:01:09;;;;;;;7.03;6.53;;;18.60;30.40;;;;;;10351744;28;20226;-74
2022/04/23 14:11:35;;;;;;;7.27;6.67;;;18.70;30.20;;;;;;10357928;28;20233;-73
2022/04/23 14:16:40;;;;;;;6.77;6.17;;;18.70;30.10;;;;;;10349778;28;20233;-74
2022/04/23 14:21:43;;;;;;;6.20;5.80;;;18.80;30.40;;;;;;10357723;28;20252;-74
2022/04/23 14:26:48;;;;;;;6.50;6.00;;;18.80;30.20;;;;;;10359999;28;20249;-73
2022/04/23 14:31:51;;;;;;;5.57;5.07;;;18.80;29.80;;;;;;10355101;28;20222;-73
2022/04/23 14:36:54;;;;;;;5.63;5.23;;;18.80;30.10;;;;;;10361080;28;20225;-73
2022/04/23 14:41:59;;;;;;;5.77;5.27;;;18.90;30.00;;;;;;10358777;28;20241;-73
2022/04/23 14:47:03;;;;;;;6.10;5.60;;;18.80;29.70;;;;;;10371824;28;20237;-73
2022/04/23 14:57:32;;;;;;;5.90;5.40;;;18.80;29.70;;;;;;10325261;28;20298;-73
2022/04/23 15:02:36;;;;;;;6.83;6.00;;;18.70;29.80;;;;;;10366131;28;20282;-73
2022/04/23 15:07:39;;;;;;;5.80;5.40;;;18.70;29.80;;;;;;10367254;28;20234;-73
2022/04/23 15:12:44;;;;;;;6.87;6.27;;;18.60;30.00;;;;;;10368355;28;20301;-73
2022/04/23 15:17:47;;;;;;;7.00;6.40;;;18.70;29.90;;;;;;10371702;28;20231;-73
2022/04/23 15:22:51;;;;;;;5.90;5.43;;;18.70;30.50;;;;;;10367178;28;20285;-73
2022/04/23 15:27:55;;;;;;;6.67;6.07;;;18.70;29.90;;;;;;10365074;28;20239;-73
2022/04/23 15:32:58;;;;;;;6.50;5.90;;;18.70;29.60;;;;;;10370325;28;20714;-73
2022/04/23 15:38:03;;;;;;;6.63;6.07;;;18.70;29.70;;;;;;10359150;28;20230;-73
2022/04/23 15:43:07;;;;;;;6.77;5.70;;;18.80;29.70;;;;;;10360662;28;20837;-73
2022/04/23 15:48:11;;;;;;;7.10;6.43;;;18.80;29.60;;;;;;10366106;28;20224;-74
2022/04/23 15:53:14;;;;;;;6.43;5.93;;;18.80;29.60;;;;;;10365995;28;20235;-73
2022/04/23 15:58:19;;;;;;;6.40;5.90;;;18.80;29.50;;;;;;10366766;28;20227;-73
2022/04/23 16:03:30;;;;;;;7.80;7.10;;;18.80;29.40;;;;;;10365295;28;20238;-73
2022/04/23 16:08:33;;;;;;;8.03;7.33;;;18.70;29.90;;;;;;10367454;28;20740;-74
2022/04/23 16:13:38;;;;;;;6.50;6.00;;;18.70;29.30;;;;;;10369235;28;20522;-74
2022/04/23 16:19:01;;;;;;;7.80;5.70;;;18.60;29.30;;;;;;10358985;28;20230;-73
2022/04/23 16:24:07;;;;;;;6.53;5.80;;;18.60;29.40;;;;;;10362870;28;20306;-74
2022/04/23 16:29:11;;;;;;;6.87;6.27;;;18.60;29.30;;;;;;10361377;28;20320;-74
2022/04/23 16:34:15;;;;;;;6.20;5.60;;;18.50;29.20;;;;;;10365847;28;20236;-74
2022/04/23 16:50:01;;;;;;;7.03;6.43;;;18.60;29.40;;;;;;10362295;28;20305;-74
2022/04/23 16:55:04;;;;;;;7.07;6.50;;;18.70;29.50;;;;;;10356054;28;20761;-73
2022/04/23 17:00:10;;;;;;;7.40;6.73;;;18.70;29.40;;;;;;10363121;28;20222;-74
2022/04/23 17:05:14;;;;;;;7.53;6.93;;;18.60;29.30;;;;;;10361333;28;20234;-74
2022/04/23 17:10:17;;;;;;;7.93;7.23;;;18.60;29.30;;;;;;10358913;28;20604;-74
2022/04/23 17:15:22;;;;;;;8.13;7.53;;;18.50;29.30;;;;;;10363021;28;20231;-74
2022/04/23 17:20:26;;;;;;;8.20;7.47;;;18.50;29.30;;;;;;10361439;28;20233;-73
2022/04/23 17:25:29;;;;;;;7.53;6.83;;;18.40;29.50;;;;;;10367845;28;20235;-72
2022/04/23 17:30:33;;;;;;;7.23;6.67;;;18.40;29.50;;;;;;10359021;28;20342;-73
2022/04/23 17:35:37;;;;;;;8.23;7.53;;;18.40;29.40;;;;;;10357519;28;20246;-73
2022/04/23 17:40:40;;;;;;;8.23;7.30;;;18.40;29.40;;;;;;10367052;28;20309;-73
2022/04/23 17:45:45;;;;;;;7.80;7.13;;;18.30;29.40;;;;;;10366790;28;20227;-73
2022/04/23 17:50:49;;;;;;;7.47;6.87;;;18.30;29.40;;;;;;10366389;28;20618;-73
2022/04/23 17:55:52;;;;;;;6.97;6.37;;;18.30;29.40;;;;;;10363321;28;20228;-72
2022/04/23 18:11:38;;;;;;;11.40;10.30;;;18.30;29.40;;;;;;10367325;28;20233;-73
2022/04/23 18:16:43;;;;;;;8.87;8.17;;;18.30;29.30;;;;;;10363606;28;20383;-73
2022/04/23 18:21:46;;;;;;;8.20;7.50;;;18.30;29.30;;;;;;10360992;28;20249;-73
2022/04/23 18:26:49;;;;;;;8.07;7.37;;;18.20;29.20;;;;;;10370400;28;20276;-73
2022/04/23 18:31:54;;;;;;;7.80;7.10;;;18.20;29.30;;;;;;10367997;28;20222;-73
2022/04/23 18:36:58;;;;;;;7.43;6.83;;;18.10;29.30;;;;;;10364792;28;20230;-73
2022/04/23 18:42:01;;;;;;;7.63;6.93;;;18.10;29.30;;;;;;10370208;28;20236;-73
2022/04/23 18:47:08;;;;;;;7.33;6.73;;;18.00;29.20;;;;;;10363238;28;20318;-73
2022/04/23 18:52:12;;;;;;;7.97;7.27;;;18.00;29.20;;;;;;10361955;28;20289;-73
2022/04/23 18:57:15;;;;;;;8.17;7.47;;;18.00;29.20;;;;;;10368054;28;20230;-73
2022/04/23 19:02:22;;;;;;;8.37;7.57;;;17.90;29.20;;;;;;10367800;28;20313;-73
2022/04/23 19:07:25;;;;;;;8.50;7.77;;;17.80;29.20;;;;;;10364586;28;20250;-73
2022/04/23 19:12:28;;;;;;;7.53;6.83;;;17.70;29.20;;;;;;10367113;28;20294;-73
2022/04/23 19:17:33;;;;;;;7.67;7.07;;;17.60;29.20;;;;;;10368474;28;20230;-73
2022/04/23 19:27:53;;;;;;;9.17;8.03;;;17.50;29.40;;;;;;10340947;28;20228;-73
2022/04/23 19:32:58;;;;;;;9.37;8.50;;;17.40;29.30;;;;;;10356260;28;20229;-73
2022/04/23 19:38:03;;;;;;;8.67;7.87;;;17.30;29.30;;;;;;10360089;28;20230;-73
2022/04/23 19:43:06;;;;;;;9.27;8.47;;;17.20;29.20;;;;;;10353690;28;20228;-75
2022/04/23 19:48:11;;;;;;;9.27;8.47;;;17.20;29.20;;;;;;10356229;28;20231;-75
2022/04/23 19:53:14;;;;;;;8.47;7.67;;;17.10;29.10;;;;;;10352857;28;20223;-74
2022/04/23 19:58:17;;;;;;;8.93;8.17;;;17.00;29.10;;;;;;10350054;28;20253;-74
2022/04/23 20:03:22;;;;;;;8.30;7.53;;;16.80;29.10;;;;;;10350134;28;20237;-75
2022/04/23 20:08:26;;;;;;;8.00;7.30;;;16.70;29.20;;;;;;10349647;28;20226;-74
2022/04/23 20:13:30;;;;;;;8.80;7.90;;;16.60;29.10;;;;;;10350896;28;20236;-75
2022/04/23 20:18:35;;;;;;;8.53;7.73;;;16.50;29.30;;;;;;10348159;28;20237;-76
2022/04/23 20:23:41;;;;;;;8.97;8.20;;;16.40;29.40;;;;;;10347074;28;20223;-75
2022/04/23 20:34:07;;;;;;;8.90;8.17;;;16.30;29.50;;;;;;10407271;28;20754;-71
2022/04/23 20:39:30;;;;;;;8.17;7.40;;;16.20;29.60;;;;;;10436634;28;20236;-72
2022/04/23 20:44:34;;;;;;;9.03;8.33;;;16.20;29.70;;;;;;10404587;28;20226;-72
2022/04/23 20:49:38;;;;;;;9.10;8.37;;;16.10;29.80;;;;;;10405663;28;20230;-72
2022/04/23 20:54:42;;;;;;;8.77;8.07;;;16.00;29.90;;;;;;10406176;28;20847;-72
2022/04/23 20:59:45;;;;;;;8.57;7.87;;;16.00;29.80;;;;;;10406060;28;20295;-72
2022/04/23 21:04:50;;;;;;;9.43;8.63;;;15.90;30.00;;;;;;10405819;28;20218;-72
2022/04/23 21:09:53;;;;;;;9.37;8.57;;;15.80;30.10;;;;;;10405459;28;20230;-72
2022/04/23 21:14:56;;;;;;;9.07;8.27;;;15.80;30.00;;;;;;10405365;28;20239;-72
2022/04/23 21:20:01;;;;;;;8.87;8.07;;;15.70;30.00;;;;;;10405134;28;20581;-72
2022/04/23 21:25:04;;;;;;;8.80;8.00;;;15.60;30.30;;;;;;10405019;28;20229;-72
2022/04/23 21:30:09;;;;;;;8.07;7.27;;;15.60;30.20;;;;;;10405047;28;20243;-72
2022/04/23 21:35:13;;;;;;;8.90;8.20;;;15.60;30.30;;;;;;10404589;28;20244;-72
2022/04/23 21:40:18;;;;;;;9.90;9.07;;;15.50;30.50;;;;;;10404465;28;20316;-72
2022/04/23 21:45:22;;;;;;;9.67;8.77;;;15.50;30.60;;;;;;10404625;28;20646;-72
2022/04/23 21:50:26;;;;;;;10.80;9.90;;;15.40;30.60;;;;;;10406178;28;20600;-72
2022/04/23 21:55:30;;;;;;;9.70;8.90;;;15.30;31.00;;;;;;10406594;28;20229;-72
2022/04/23 22:01:08;;;;;;;10.27;9.37;;;15.20;30.90;;;;;;10406376;28;20234;-72
2022/04/23 22:06:13;;;;;;;10.53;9.63;;;15.20;31.80;;;;;;10406213;28;20275;-72
2022/04/23 22:11:17;;;;;;;11.00;10.10;;;15.10;31.50;;;;;;10406395;28;20320;-72
2022/04/23 22:16:20;;;;;;;10.67;9.73;;;15.10;31.20;;;;;;10406146;28;20230;-72
2022/04/23 22:21:24;;;;;;;11.60;10.50;;;15.10;31.30;;;;;;10406184;28;20295;-72
2022/04/23 22:26:27;;;;;;;11.30;10.30;;;15.00;31.50;;;;;;10406079;28;20222;-72
2022/04/23 22:31:31;;;;;;;11.97;10.90;;;15.00;31.20;;;;;;10405821;28;20229;-72
2022/04/23 22:36:35;;;;;;;11.30;10.30;;;14.90;31.50;;;;;;10405806;28;20234;-72
2022/04/23 22:41:38;;;;;;;12.23;11.23;;;14.90;32.00;;;;;;10405810;28;20229;-72
2022/04/23 22:46:42;;;;;;;11.63;10.63;;;14.90;31.90;;;;;;10403803;28;20221;-72
2022/04/23 22:51:46;;;;;;;13.23;11.93;;;14.80;31.70;;;;;;10404483;28;20236;-73
2022/04/23 22:56:49;;;;;;;12.00;11.00;;;14.80;31.90;;;;;;10412429;28;20269;-72
2022/04/23 23:01:52;;;;;;;11.53;10.43;;;14.70;31.80;;;;;;10413586;28;20229;-72
2022/04/23 23:06:57;;;;;;;12.63;11.53;;;14.70;31.80;;;;;;10413279;28;20229;-72
2022/04/23 23:12:01;;;;;;;12.17;11.07;;;14.70;31.80;;;;;;10413049;28;20708;-72
2022/04/23 23:17:05;;;;;;;11.93;10.83;;;14.60;31.80;;;;;;10412555;28;20239;-72
2022/04/23 23:22:09;;;;;;;11.77;10.77;;;14.60;31.80;;;;;;10412693;28;20656;-72
2022/04/23 23:27:13;;;;;;;10.57;9.60;;;14.60;31.80;;;;;;10412786;28;20236;-72
2022/04/23 23:32:16;;;;;;;12.13;11.13;;;14.60;31.80;;;;;;10412319;28;20241;-72
2022/04/23 23:37:20;;;;;;;12.60;11.50;;;14.50;31.70;;;;;;10411922;28;20244;-72
2022/04/23 23:42:24;;;;;;;12.90;11.70;;;14.50;31.80;;;;;;10411772;28;20596;-72
2022/04/23 23:47:27;;;;;;;12.63;11.53;;;14.40;31.60;;;;;;10411883;28;20226;-72
2022/04/23 23:52:31;;;;;;;14.10;12.80;;;14.40;31.60;;;;;;10411633;28;20709;-72
2022/04/23 23:57:34;;;;;;;14.13;12.87;;;14.30;32.00;;;;;;10411523;28;20252;-72
